sensor_id;sensor_type;location;lat;lon;timestamp;pressure;altitude;pressure_sealevel;temperature;humidity
15529;BME280;7866;52.280;9.500;2022-12-10T00:02:40;99590.06;;;-0.10;100.00
15529;BME280;7866;52.280;9.500;2022-12-10T00:07:42;99595.91;;;-0.17;99.18
15529;BME280;7866;52.280;9.500;2022-12-10T00:12:45;99596.75;;;-0.06;100.00
15529;BME280;7866;52.280;9.500;2022-12-10T00:17:47;99595.69;;;-0.03;100.00
15529;BME280;7866;52.280;9.500;2022-12-10T00:22:48;99602.38;;;0.01;99.45
15529;BME280;7866;52.280;9.500;2022-12-10T00:27:51;99601.41;;;-0.09;98.86
15529;BME280;7866;52.280;9.500;2022-12-10T00:32:53;99610.75;;;0.06;99.99
15529;BME280;7866;52.280;9.500;2022-12-10T00:37:55;99604.78;;;0.04;99.30
15529;BME280;7866;52.280;9.500;2022-12-10T00:42:58;99613.75;;;0.02;99.00
15529;BME280;7866;52.280;9.500;2022-12-10T00:47:59;99622.94;;;0.07;99.52
15529;BME280;7866;52.280;9.500;2022-12-10T00:53:01;99610.28;;;0.12;98.89
15529;BME280;7866;52.280;9.500;2022-12-10T00:58:04;99618.03;;;0.14;99.60
15529;BME280;7866;52.280;9.500;2022-12-10T01:03:06;99616.13;;;0.16;99.41
15529;BME280;7866;52.280;9.500;2022-12-10T01:08:07;99619.84;;;0.13;99.79
15529;BME280;7866;52.280;9.500;2022-12-10T01:13:11;99621.38;;;0.16;99.94
15529;BME280;7866;52.280;9.500;2022-12-10T01:18:12;99622.25;;;0.16;99.95
15529;BME280;7866;52.280;9.500;2022-12-10T01:23:14;99632.41;;;0.21;99.99
15529;BME280;7866;52.280;9.500;2022-12-10T01:28:17;99641.84;;;0.23;100.00
15529;BME280;7866;52.280;9.500;2022-12-10T01:33:18;99639.09;;;0.25;100.00
15529;BME280;7866;52.280;9.500;2022-12-10T01:38:20;99643.31;;;0.16;99.76
15529;BME280;7866;52.280;9.500;2022-12-10T01:43:24;99642.72;;;0.24;99.69
15529;BME280;7866;52.280;9.500;2022-12-10T01:48:25;99649.16;;;0.20;99.80
15529;BME280;7866;52.280;9.500;2022-12-10T01:53:27;99646.88;;;0.27;99.95
15529;BME280;7866;52.280;9.500;2022-12-10T01:58:30;99643.78;;;0.21;99.35
15529;BME280;7866;52.280;9.500;2022-12-10T02:03:38;99639.34;;;0.11;100.00
15529;BME280;7866;52.280;9.500;2022-12-10T02:08:45;99646.03;;;0.15;100.00
15529;BME280;7866;52.280;9.500;2022-12-10T02:13:56;99652.13;;;0.15;100.00
15529;BME280;7866;52.280;9.500;2022-12-10T02:19:04;99641.25;;;0.20;99.79
15529;BME280;7866;52.280;9.500;2022-12-10T02:24:10;99640.78;;;0.26;100.00
15529;BME280;7866;52.280;9.500;2022-12-10T02:29:16;99635.75;;;0.12;100.00
15529;BME280;7866;52.280;9.500;2022-12-10T02:34:19;99628.94;;;0.20;100.00
15529;BME280;7866;52.280;9.500;2022-12-10T02:39:26;99630.84;;;0.30;100.00
15529;BME280;7866;52.280;9.500;2022-12-10T02:44:33;99628.94;;;0.20;100.00
15529;BME280;7866;52.280;9.500;2022-12-10T02:49:39;99641.75;;;0.25;100.00
15529;BME280;7866;52.280;9.500;2022-12-10T02:54:44;99637.31;;;0.26;99.91
15529;BME280;7866;52.280;9.500;2022-12-10T03:00:02;99630.84;;;0.30;100.00
15529;BME280;7866;52.280;9.500;2022-12-10T03:05:09;99636.72;;;0.22;100.00
15529;BME280;7866;52.280;9.500;2022-12-10T03:10:19;99631.91;;;0.16;100.00
15529;BME280;7866;52.280;9.500;2022-12-10T03:15:26;99633.25;;;0.21;100.00
15529;BME280;7866;52.280;9.500;2022-12-10T03:20:30;99633.63;;;0.28;100.00
15529;BME280;7866;52.280;9.500;2022-12-10T03:25:32;99632.41;;;0.21;100.00
15529;BME280;7866;52.280;9.500;2022-12-10T03:30:36;99631.69;;;0.19;100.00
15529;BME280;7866;52.280;9.500;2022-12-10T03:35:41;99629.66;;;0.22;100.00
15529;BME280;7866;52.280;9.500;2022-12-10T03:40:43;99624.16;;;0.14;100.00
15529;BME280;7866;52.280;9.500;2022-12-10T03:45:46;99626.66;;;0.27;100.00
15529;BME280;7866;52.280;9.500;2022-12-10T03:50:48;99630.34;;;0.36;100.00
15529;BME280;7866;52.280;9.500;2022-12-10T03:55:49;99631.53;;;0.32;100.00
15529;BME280;7866;52.280;9.500;2022-12-10T04:00:52;99623.63;;;0.32;100.00
15529;BME280;7866;52.280;9.500;2022-12-10T04:05:54;99627.63;;;0.26;100.00
15529;BME280;7866;52.280;9.500;2022-12-10T04:11:03;99629.78;;;0.21;100.00
15529;BME280;7866;52.280;9.500;2022-12-10T04:16:07;99640.91;;;0.24;100.00
15529;BME280;7866;52.280;9.500;2022-12-10T04:21:27;99642.06;;;0.32;100.00
15529;BME280;7866;52.280;9.500;2022-12-10T04:26:46;99639.09;;;0.36;100.00
15529;BME280;7866;52.280;9.500;2022-12-10T04:31:56;99642.44;;;0.38;100.00
15529;BME280;7866;52.280;9.500;2022-12-10T04:36:59;99652.84;;;0.40;100.00
15529;BME280;7866;52.280;9.500;2022-12-10T04:42:01;99648.91;;;0.34;100.00
15529;BME280;7866;52.280;9.500;2022-12-10T04:47:05;99649.28;;;0.30;99.56
15529;BME280;7866;52.280;9.500;2022-12-10T04:52:10;99643.41;;;0.26;99.81
15529;BME280;7866;52.280;9.500;2022-12-10T04:57:12;99637.44;;;0.24;99.91
15529;BME280;7866;52.280;9.500;2022-12-10T05:02:15;99644.59;;;0.33;99.39
15529;BME280;7866;52.280;9.500;2022-12-10T05:07:17;99652.28;;;0.25;99.99
15529;BME280;7866;52.280;9.500;2022-12-10T05:12:19;99651.69;;;0.33;99.13
15529;BME280;7866;52.280;9.500;2022-12-10T05:17:22;99648.78;;;0.36;99.22
15529;BME280;7866;52.280;9.500;2022-12-10T05:22:23;99648.78;;;0.36;99.58
15529;BME280;7866;52.280;9.500;2022-12-10T05:27:42;99647.84;;;0.26;99.30
15529;BME280;7866;52.280;9.500;2022-12-10T05:32:45;99646.88;;;0.27;99.95
15529;BME280;7866;52.280;9.500;2022-12-10T05:37:47;99651.31;;;0.26;99.29
15529;BME280;7866;52.280;9.500;2022-12-10T05:42:48;99650.00;;;0.20;99.41
15529;BME280;7866;52.280;9.500;2022-12-10T05:47:52;99662.56;;;0.17;98.92
15529;BME280;7866;52.280;9.500;2022-12-10T05:52:53;99655.38;;;0.19;99.86
15529;BME280;7866;52.280;9.500;2022-12-10T05:57:55;99664.84;;;0.21;99.37
15529;BME280;7866;52.280;9.500;2022-12-10T06:02:58;99667.56;;;0.20;99.81
15529;BME280;7866;52.280;9.500;2022-12-10T06:08:00;99672.50;;;0.24;99.41
15529;BME280;7866;52.280;9.500;2022-12-10T06:13:01;99674.19;;;0.26;99.54
15529;BME280;7866;52.280;9.500;2022-12-10T06:18:04;99674.66;;;0.31;100.00
15529;BME280;7866;52.280;9.500;2022-12-10T06:23:07;99674.78;;;0.29;100.00
15529;BME280;7866;52.280;9.500;2022-12-10T06:28:09;99689.84;;;0.16;99.19
15529;BME280;7866;52.280;9.500;2022-12-10T06:33:12;99683.50;;;0.18;99.54
15529;BME280;7866;52.280;9.500;2022-12-10T06:38:14;99695.84;;;0.18;100.00
15529;BME280;7866;52.280;9.500;2022-12-10T06:43:15;99697.63;;;0.17;99.82
15529;BME280;7866;52.280;9.500;2022-12-10T06:48:18;99703.28;;;0.24;100.00
15529;BME280;7866;52.280;9.500;2022-12-10T06:53:20;99701.94;;;0.18;99.17
15529;BME280;7866;52.280;9.500;2022-12-10T06:58:21;99712.34;;;0.09;98.77
15529;BME280;7866;52.280;9.500;2022-12-10T07:03:24;99701.31;;;0.04;99.62
15529;BME280;7866;52.280;9.500;2022-12-10T07:08:26;99706.94;;;-0.01;98.65
15529;BME280;7866;52.280;9.500;2022-12-10T07:13:28;99706.00;;;0.00;98.84
15529;BME280;7866;52.280;9.500;2022-12-10T07:18:31;99719.47;;;-0.05;99.58
15529;BME280;7866;52.280;9.500;2022-12-10T07:23:33;99713.63;;;-0.08;99.39
15529;BME280;7866;52.280;9.500;2022-12-10T07:28:34;99717.47;;;-0.01;99.01
15529;BME280;7866;52.280;9.500;2022-12-10T07:33:38;99729.41;;;-0.08;98.94
15529;BME280;7866;52.280;9.500;2022-12-10T07:38:40;99728.25;;;0.07;99.39
15529;BME280;7866;52.280;9.500;2022-12-10T07:43:43;99744.13;;;-0.06;98.73
15529;BME280;7866;52.280;9.500;2022-12-10T07:48:47;99755.72;;;-0.19;99.52
15529;BME280;7866;52.280;9.500;2022-12-10T07:53:51;99746.50;;;-0.14;99.97
15529;BME280;7866;52.280;9.500;2022-12-10T07:58:53;99748.78;;;-0.09;98.97
15529;BME280;7866;52.280;9.500;2022-12-10T08:03:57;99752.50;;;-0.12;99.87
15529;BME280;7866;52.280;9.500;2022-12-10T08:08:59;99751.94;;;-0.28;99.94
15529;BME280;7866;52.280;9.500;2022-12-10T08:14:01;99759.63;;;-0.25;99.80
15529;BME280;7866;52.280;9.500;2022-12-10T08:19:04;99753.44;;;-0.13;100.00
15529;BME280;7866;52.280;9.500;2022-12-10T08:24:06;99762.78;;;-0.20;98.71
15529;BME280;7866;52.280;9.500;2022-12-10T08:29:07;99767.53;;;-0.25;99.16
15529;BME280;7866;52.280;9.500;2022-12-10T08:34:13;99767.94;;;-0.07;100.00
15529;BME280;7866;52.280;9.500;2022-12-10T08:39:15;99775.19;;;-0.22;98.93
15529;BME280;7866;52.280;9.500;2022-12-10T08:44:17;99773.03;;;-0.17;99.10
15529;BME280;7866;52.280;9.500;2022-12-10T08:49:20;99775.59;;;-0.15;98.97
15529;BME280;7866;52.280;9.500;2022-12-10T08:54:21;99773.63;;;-0.25;99.24
15529;BME280;7866;52.280;9.500;2022-12-10T08:59:23;99783.84;;;-0.09;99.19
15529;BME280;7866;52.280;9.500;2022-12-10T09:04:26;99786.94;;;-0.15;99.53
15529;BME280;7866;52.280;9.500;2022-12-10T09:09:27;99788.25;;;-0.09;99.07
15529;BME280;7866;52.280;9.500;2022-12-10T09:14:29;99791.69;;;0.04;99.35
15529;BME280;7866;52.280;9.500;2022-12-10T09:19:32;99805.00;;;-0.10;98.28
15529;BME280;7866;52.280;9.500;2022-12-10T09:24:34;99799.72;;;-0.21;98.88
15529;BME280;7866;52.280;9.500;2022-12-10T09:29:35;99801.91;;;-0.15;98.96
15529;BME280;7866;52.280;9.500;2022-12-10T09:34:38;99806.19;;;-0.14;98.55
15529;BME280;7866;52.280;9.500;2022-12-10T09:39:40;99809.06;;;-0.17;98.81
15529;BME280;7866;52.280;9.500;2022-12-10T09:44:51;99809.22;;;-0.08;98.29
15529;BME280;7866;52.280;9.500;2022-12-10T09:50:02;99806.75;;;0.13;98.06
15529;BME280;7866;52.280;9.500;2022-12-10T09:55:12;99808.31;;;0.16;97.72
15529;BME280;7866;52.280;9.500;2022-12-10T10:00:19;99810.09;;;0.15;97.47
15529;BME280;7866;52.280;9.500;2022-12-10T10:05:25;99791.31;;;0.09;97.81
15529;BME280;7866;52.280;9.500;2022-12-10T10:10:29;99800.50;;;0.03;97.13
15529;BME280;7866;52.280;9.500;2022-12-10T10:15:34;99798.91;;;0.24;97.23
15529;BME280;7866;52.280;9.500;2022-12-10T10:20:38;99797.59;;;0.30;97.37
15529;BME280;7866;52.280;9.500;2022-12-10T10:25:40;99792.03;;;0.11;97.31
15529;BME280;7866;52.280;9.500;2022-12-10T10:30:43;99801.25;;;0.05;96.88
15529;BME280;7866;52.280;9.500;2022-12-10T10:35:49;99805.81;;;0.14;97.71
15529;BME280;7866;52.280;9.500;2022-12-10T10:40:56;99807.06;;;0.33;97.41
15529;BME280;7866;52.280;9.500;2022-12-10T10:45:59;99799.50;;;0.28;96.91
15529;BME280;7866;52.280;9.500;2022-12-10T10:51:08;99805.88;;;0.37;97.44
15529;BME280;7866;52.280;9.500;2022-12-10T10:56:12;99810.50;;;0.22;97.17
15529;BME280;7866;52.280;9.500;2022-12-10T11:01:17;99819.19;;;0.11;97.24
15529;BME280;7866;52.280;9.500;2022-12-10T11:06:20;99814.75;;;0.01;97.09
15529;BME280;7866;52.280;9.500;2022-12-10T11:11:30;99822.53;;;0.02;97.74
15529;BME280;7866;52.280;9.500;2022-12-10T11:16:33;99814.13;;;-0.03;97.23
15529;BME280;7866;52.280;9.500;2022-12-10T11:21:36;99815.53;;;-0.10;96.86
15529;BME280;7866;52.280;9.500;2022-12-10T11:26:52;99810.78;;;-0.05;96.59
15529;BME280;7866;52.280;9.500;2022-12-10T11:32:09;99807.88;;;-0.13;97.31
15529;BME280;7866;52.280;9.500;2022-12-10T11:37:32;99800.97;;;-0.03;96.85
15529;BME280;7866;52.280;9.500;2022-12-10T11:42:44;99804.94;;;0.03;96.93
15529;BME280;7866;52.280;9.500;2022-12-10T11:48:00;99804.09;;;0.02;96.24
15529;BME280;7866;52.280;9.500;2022-12-10T11:53:16;99807.47;;;0.04;95.98
15529;BME280;7866;52.280;9.500;2022-12-10T11:58:33;99804.97;;;0.14;96.87
15529;BME280;7866;52.280;9.500;2022-12-10T12:03:59;99811.66;;;0.07;96.15
15529;BME280;7866;52.280;9.500;2022-12-10T12:09:11;99812.38;;;0.09;96.38
15529;BME280;7866;52.280;9.500;2022-12-10T12:14:19;99814.19;;;0.19;96.03
15529;BME280;7866;52.280;9.500;2022-12-10T12:19:30;99821.59;;;0.14;96.03
15529;BME280;7866;52.280;9.500;2022-12-10T12:24:36;99813.78;;;0.02;95.31
15529;BME280;7866;52.280;9.500;2022-12-10T12:29:42;99819.28;;;-0.02;96.58
15529;BME280;7866;52.280;9.500;2022-12-10T12:34:50;99814.63;;;0.02;96.64
15529;BME280;7866;52.280;9.500;2022-12-10T12:39:59;99810.28;;;-0.10;95.63
15529;BME280;7866;52.280;9.500;2022-12-10T12:45:10;99802.25;;;-0.09;96.28
15529;BME280;7866;52.280;9.500;2022-12-10T12:50:25;99801.91;;;-0.04;96.38
15529;BME280;7866;52.280;9.500;2022-12-10T12:55:33;99814.13;;;-0.03;96.88
15529;BME280;7866;52.280;9.500;2022-12-10T13:00:40;99814.84;;;-0.01;97.30
15529;BME280;7866;52.280;9.500;2022-12-10T13:05:43;99820.16;;;0.10;97.54
15529;BME280;7866;52.280;9.500;2022-12-10T13:10:50;99818.47;;;0.09;96.89
15529;BME280;7866;52.280;9.500;2022-12-10T13:15:53;99813.25;;;0.20;96.61
15529;BME280;7866;52.280;9.500;2022-12-10T13:21:27;99823.78;;;0.20;96.07
15529;BME280;7866;52.280;9.500;2022-12-10T13:26:31;99828.13;;;0.33;96.88
15529;BME280;7866;52.280;9.500;2022-12-10T13:31:34;99826.56;;;0.41;96.52
15529;BME280;7866;52.280;9.500;2022-12-10T13:37:18;99827.28;;;0.32;96.05
15529;BME280;7866;52.280;9.500;2022-12-10T13:42:32;99822.09;;;0.19;96.10
15529;BME280;7866;52.280;9.500;2022-12-10T13:47:52;99828.84;;;-0.01;95.90
15529;BME280;7866;52.280;9.500;2022-12-10T13:53:00;99836.44;;;0.04;96.35
15529;BME280;7866;52.280;9.500;2022-12-10T13:58:27;99834.28;;;0.09;96.30
15529;BME280;7866;52.280;9.500;2022-12-10T14:03:51;99838.63;;;0.21;96.68
15529;BME280;7866;52.280;9.500;2022-12-10T14:08:59;99856.22;;;0.21;96.09
15529;BME280;7866;52.280;9.500;2022-12-10T14:14:06;99852.50;;;0.12;96.05
15529;BME280;7866;52.280;9.500;2022-12-10T14:19:13;99860.97;;;0.16;95.59
15529;BME280;7866;52.280;9.500;2022-12-10T14:24:26;99862.16;;;0.12;95.71
15529;BME280;7866;52.280;9.500;2022-12-10T14:29:30;99857.47;;;0.04;95.71
15529;BME280;7866;52.280;9.500;2022-12-10T14:34:31;99860.25;;;0.14;95.59
15529;BME280;7866;52.280;9.500;2022-12-10T14:39:33;99851.31;;;0.16;96.20
15529;BME280;7866;52.280;9.500;2022-12-10T14:44:39;99858.19;;;0.06;95.29
15529;BME280;7866;52.280;9.500;2022-12-10T14:49:43;99863.50;;;0.17;95.26
15529;BME280;7866;52.280;9.500;2022-12-10T14:54:46;99857.22;;;0.07;96.17
15529;BME280;7866;52.280;9.500;2022-12-10T15:00:02;99859.03;;;0.07;96.00
15529;BME280;7866;52.280;9.500;2022-12-10T15:05:10;99864.25;;;-0.05;95.50
15529;BME280;7866;52.280;9.500;2022-12-10T15:10:17;99873.16;;;0.06;95.82
15529;BME280;7866;52.280;9.500;2022-12-10T15:15:24;99876.13;;;0.01;96.10
15529;BME280;7866;52.280;9.500;2022-12-10T15:20:29;99872.66;;;0.01;94.95
15529;BME280;7866;52.280;9.500;2022-12-10T15:25:41;99877.13;;;0.11;96.17
15529;BME280;7866;52.280;9.500;2022-12-10T15:30:46;99874.25;;;0.14;95.98
15529;BME280;7866;52.280;9.500;2022-12-10T15:35:54;99881.09;;;0.17;95.12
15529;BME280;7866;52.280;9.500;2022-12-10T15:41:19;99884.22;;;0.22;94.92
15529;BME280;7866;52.280;9.500;2022-12-10T15:46:23;99878.47;;;0.17;94.27
15529;BME280;7866;52.280;9.500;2022-12-10T15:51:25;99885.53;;;0.16;95.62
15529;BME280;7866;52.280;9.500;2022-12-10T15:56:27;99881.53;;;0.11;94.42
15529;BME280;7866;52.280;9.500;2022-12-10T16:01:30;99885.53;;;0.16;95.48
15529;BME280;7866;52.280;9.500;2022-12-10T16:06:32;99888.25;;;0.15;94.35
15529;BME280;7866;52.280;9.500;2022-12-10T16:11:33;99891.03;;;0.13;95.05
15529;BME280;7866;52.280;9.500;2022-12-10T16:16:36;99895.72;;;0.21;95.25
15529;BME280;7866;52.280;9.500;2022-12-10T16:21:39;99899.81;;;0.25;95.20
15529;BME280;7866;52.280;9.500;2022-12-10T16:26:41;99898.09;;;-0.11;94.09
15529;BME280;7866;52.280;9.500;2022-12-10T16:31:44;99897.34;;;-0.13;95.09
15529;BME280;7866;52.280;9.500;2022-12-10T16:36:46;99897.81;;;-0.19;94.77
15529;BME280;7866;52.280;9.500;2022-12-10T16:41:51;99910.97;;;-0.19;95.10
15529;BME280;7866;52.280;9.500;2022-12-10T16:46:55;99909.81;;;-0.04;94.51
15529;BME280;7866;52.280;9.500;2022-12-10T16:51:56;99907.16;;;-0.15;94.33
15529;BME280;7866;52.280;9.500;2022-12-10T16:56:58;99908.28;;;-0.07;95.21
15529;BME280;7866;52.280;9.500;2022-12-10T17:02:01;99906.19;;;0.10;94.61
15529;BME280;7866;52.280;9.500;2022-12-10T17:07:03;99893.03;;;0.10;94.34
15529;BME280;7866;52.280;9.500;2022-12-10T17:12:06;99896.16;;;0.15;94.26
15529;BME280;7866;52.280;9.500;2022-12-10T17:17:09;99905.97;;;0.13;93.92
15529;BME280;7866;52.280;9.500;2022-12-10T17:22:11;99909.88;;;0.07;93.96
15529;BME280;7866;52.280;9.500;2022-12-10T17:27:16;99914.81;;;0.12;93.37
15529;BME280;7866;52.280;9.500;2022-12-10T17:32:21;99910.41;;;0.12;94.42
15529;BME280;7866;52.280;9.500;2022-12-10T17:37:25;99912.69;;;0.17;94.22
15529;BME280;7866;52.280;9.500;2022-12-10T17:42:28;99909.44;;;0.13;94.14
15529;BME280;7866;52.280;9.500;2022-12-10T17:47:31;99909.53;;;0.12;93.86
15529;BME280;7866;52.280;9.500;2022-12-10T17:52:32;99912.28;;;0.10;93.36
15529;BME280;7866;52.280;9.500;2022-12-10T17:57:34;99902.50;;;0.12;93.15
15529;BME280;7866;52.280;9.500;2022-12-10T18:02:37;99906.34;;;0.19;92.82
15529;BME280;7866;52.280;9.500;2022-12-10T18:07:39;99912.91;;;0.14;94.19
15529;BME280;7866;52.280;9.500;2022-12-10T18:12:40;99908.50;;;0.14;93.93
15529;BME280;7866;52.280;9.500;2022-12-10T18:17:43;99909.81;;;0.20;93.94
15529;BME280;7866;52.280;9.500;2022-12-10T18:22:46;99903.97;;;0.16;94.46
15529;BME280;7866;52.280;9.500;2022-12-10T18:27:48;99912.78;;;0.15;93.86
15529;BME280;7866;52.280;9.500;2022-12-10T18:32:51;99925.97;;;0.15;94.47
15529;BME280;7866;52.280;9.500;2022-12-10T18:37:52;99920.47;;;0.18;95.37
15529;BME280;7866;52.280;9.500;2022-12-10T18:42:54;99918.19;;;0.14;95.03
15529;BME280;7866;52.280;9.500;2022-12-10T18:47:57;99919.03;;;0.14;94.72
15529;BME280;7866;52.280;9.500;2022-12-10T18:52:59;99926.41;;;0.09;95.57
15529;BME280;7866;52.280;9.500;2022-12-10T18:58:00;99926.09;;;0.14;95.80
15529;BME280;7866;52.280;9.500;2022-12-10T19:03:03;99926.56;;;0.19;95.61
15529;BME280;7866;52.280;9.500;2022-12-10T19:08:06;99929.50;;;0.03;94.56
15529;BME280;7866;52.280;9.500;2022-12-10T19:13:07;99932.97;;;0.04;95.66
15529;BME280;7866;52.280;9.500;2022-12-10T19:18:13;99930.44;;;0.02;95.28
15529;BME280;7866;52.280;9.500;2022-12-10T19:23:15;99935.72;;;0.02;96.41
15529;BME280;7866;52.280;9.500;2022-12-10T19:28:17;99929.16;;;0.08;95.65
15529;BME280;7866;52.280;9.500;2022-12-10T19:33:20;99929.06;;;0.09;95.98
15529;BME280;7866;52.280;9.500;2022-12-10T19:38:22;99932.31;;;0.13;96.92
15529;BME280;7866;52.280;9.500;2022-12-10T19:43:24;99940.81;;;0.16;96.03
15529;BME280;7866;52.280;9.500;2022-12-10T19:48:27;99934.94;;;0.13;96.88
15529;BME280;7866;52.280;9.500;2022-12-10T19:53:29;99937.66;;;0.11;96.59
15529;BME280;7866;52.280;9.500;2022-12-10T19:58:30;99935.38;;;0.07;96.23
15529;BME280;7866;52.280;9.500;2022-12-10T20:03:33;99931.91;;;0.06;95.66
15529;BME280;7866;52.280;9.500;2022-12-10T20:08:35;99933.13;;;0.13;96.19
15529;BME280;7866;52.280;9.500;2022-12-10T20:13:36;99931.00;;;0.18;95.73
15529;BME280;7866;52.280;9.500;2022-12-10T20:18:39;99939.47;;;0.11;96.55
15529;BME280;7866;52.280;9.500;2022-12-10T20:23:42;99939.69;;;0.08;95.85
15529;BME280;7866;52.280;9.500;2022-12-10T20:28:44;99946.88;;;0.06;96.44
15529;BME280;7866;52.280;9.500;2022-12-10T20:33:47;99945.28;;;0.03;95.90
15529;BME280;7866;52.280;9.500;2022-12-10T20:38:49;99955.47;;;0.08;96.37
15529;BME280;7866;52.280;9.500;2022-12-10T20:43:51;99954.28;;;0.12;96.81
15529;BME280;7866;52.280;9.500;2022-12-10T20:48:55;99945.41;;;0.02;96.88
15529;BME280;7866;52.280;9.500;2022-12-10T20:53:58;99943.28;;;0.07;96.43
15529;BME280;7866;52.280;9.500;2022-12-10T20:59:00;99947.25;;;0.12;96.39
15529;BME280;7866;52.280;9.500;2022-12-10T21:04:04;99939.66;;;-0.04;95.39
15529;BME280;7866;52.280;9.500;2022-12-10T21:09:05;99933.84;;;-0.09;95.38
15529;BME280;7866;52.280;9.500;2022-12-10T21:14:07;99927.75;;;-0.09;95.52
15529;BME280;7866;52.280;9.500;2022-12-10T21:19:10;99927.03;;;-0.11;95.38
15529;BME280;7866;52.280;9.500;2022-12-10T21:24:12;99932.63;;;-0.16;95.08
15529;BME280;7866;52.280;9.500;2022-12-10T21:29:14;99933.47;;;-0.15;95.09
15529;BME280;7866;52.280;9.500;2022-12-10T21:34:17;99928.69;;;-0.34;95.11
15529;BME280;7866;52.280;9.500;2022-12-10T21:39:19;99925.91;;;-0.20;95.66
15529;BME280;7866;52.280;9.500;2022-12-10T21:44:20;99928.38;;;-0.06;95.55
15529;BME280;7866;52.280;9.500;2022-12-10T21:49:24;99925.88;;;-0.07;95.38
15529;BME280;7866;52.280;9.500;2022-12-10T21:54:25;99925.81;;;0.06;96.36
15529;BME280;7866;52.280;9.500;2022-12-10T21:59:27;99924.13;;;0.05;95.97
15529;BME280;7866;52.280;9.500;2022-12-10T22:04:30;99927.31;;;-0.03;96.28
15529;BME280;7866;52.280;9.500;2022-12-10T22:09:32;99920.97;;;-0.01;95.25
15529;BME280;7866;52.280;9.500;2022-12-10T22:14:33;99921.38;;;0.06;95.93
15529;BME280;7866;52.280;9.500;2022-12-10T22:19:36;99922.41;;;-0.08;94.75
15529;BME280;7866;52.280;9.500;2022-12-10T22:24:38;99927.94;;;0.01;96.33
15529;BME280;7866;52.280;9.500;2022-12-10T22:29:39;99922.16;;;-0.05;95.93
15529;BME280;7866;52.280;9.500;2022-12-10T22:34:43;99921.94;;;-0.02;95.23
15529;BME280;7866;52.280;9.500;2022-12-10T22:39:45;99921.72;;;0.02;95.42
15529;BME280;7866;52.280;9.500;2022-12-10T22:44:46;99921.38;;;0.06;95.41
15529;BME280;7866;52.280;9.500;2022-12-10T22:49:49;99924.00;;;0.06;96.02
15529;BME280;7866;52.280;9.500;2022-12-10T22:54:51;99919.47;;;0.08;95.03
15529;BME280;7866;52.280;9.500;2022-12-10T22:59:53;99910.84;;;0.06;95.03
15529;BME280;7866;52.280;9.500;2022-12-10T23:04:56;99909.16;;;0.05;95.13
15529;BME280;7866;52.280;9.500;2022-12-10T23:09:58;99908.44;;;0.03;95.94
15529;BME280;7866;52.280;9.500;2022-12-10T23:14:59;99910.34;;;0.01;95.56
15529;BME280;7866;52.280;9.500;2022-12-10T23:20:03;99900.31;;;0.06;95.33
15529;BME280;7866;52.280;9.500;2022-12-10T23:25:05;99900.59;;;0.14;95.33
15529;BME280;7866;52.280;9.500;2022-12-10T23:30:09;99900.47;;;0.16;96.09
15529;BME280;7866;52.280;9.500;2022-12-10T23:35:14;99901.63;;;0.12;95.68
15529;BME280;7866;52.280;9.500;2022-12-10T23:40:15;99891.22;;;0.10;95.69
15529;BME280;7866;52.280;9.500;2022-12-10T23:45:17;99898.44;;;0.08;95.23
15529;BME280;7866;52.280;9.500;2022-12-10T23:50:21;99895.66;;;0.10;95.80
15529;BME280;7866;52.280;9.500;2022-12-10T23:55:23;99898.91;;;0.13;95.69
